sensor_id;sensor_type;location;lat;lon;timestamp;pressure;altitude;pressure_sealevel;temperature;humidity
10668;BME280;5382;42.136;24.796;2023-08-06T00:00:28;98466.50;;;25.66;100.00
10668;BME280;5382;42.136;24.796;2023-08-06T00:02:55;98475.44;;;25.67;100.00
10668;BME280;5382;42.136;24.796;2023-08-06T00:05:22;98473.59;;;25.56;100.00
10668;BME280;5382;42.136;24.796;2023-08-06T00:07:50;98471.00;;;25.61;100.00
10668;BME280;5382;42.136;24.796;2023-08-06T00:10:17;98475.75;;;25.71;100.00
10668;BME280;5382;42.136;24.796;2023-08-06T00:12:44;98449.88;;;25.63;100.00
10668;BME280;5382;42.136;24.796;2023-08-06T00:15:11;98451.13;;;25.72;100.00
10668;BME280;5382;42.136;24.796;2023-08-06T00:17:38;98443.09;;;25.77;100.00
10668;BME280;5382;42.136;24.796;2023-08-06T00:20:06;98431.72;;;25.63;100.00
10668;BME280;5382;42.136;24.796;2023-08-06T00:22:33;98447.06;;;25.58;100.00
10668;BME280;5382;42.136;24.796;2023-08-06T00:25:02;98448.75;;;25.59;100.00
10668;BME280;5382;42.136;24.796;2023-08-06T00:27:29;98435.59;;;25.51;100.00
10668;BME280;5382;42.136;24.796;2023-08-06T00:29:58;98440.13;;;25.33;100.00
10668;BME280;5382;42.136;24.796;2023-08-06T00:32:25;98450.50;;;25.24;100.00
10668;BME280;5382;42.136;24.796;2023-08-06T00:34:51;98443.94;;;25.09;100.00
10668;BME280;5382;42.136;24.796;2023-08-06T00:37:18;98451.97;;;25.03;100.00
10668;BME280;5382;42.136;24.796;2023-08-06T00:39:45;98407.47;;;24.71;100.00
10668;BME280;5382;42.136;24.796;2023-08-06T00:42:13;98453.03;;;25.02;100.00
10668;BME280;5382;42.136;24.796;2023-08-06T00:44:41;98450.44;;;25.08;100.00
10668;BME280;5382;42.136;24.796;2023-08-06T00:47:08;98448.44;;;25.03;100.00
10668;BME280;5382;42.136;24.796;2023-08-06T00:49:36;98441.03;;;24.98;100.00
10668;BME280;5382;42.136;24.796;2023-08-06T00:52:04;98429.56;;;24.91;100.00
10668;BME280;5382;42.136;24.796;2023-08-06T00:54:32;98429.44;;;24.86;100.00
10668;BME280;5382;42.136;24.796;2023-08-06T00:57:00;98439.56;;;24.79;100.00
10668;BME280;5382;42.136;24.796;2023-08-06T00:59:30;98423.34;;;24.79;100.00
10668;BME280;5382;42.136;24.796;2023-08-06T01:01:57;98387.53;;;24.48;100.00
10668;BME280;5382;42.136;24.796;2023-08-06T01:04:25;98409.22;;;24.77;100.00
10668;BME280;5382;42.136;24.796;2023-08-06T01:06:59;98405.34;;;24.73;100.00
10668;BME280;5382;42.136;24.796;2023-08-06T01:09:35;98387.16;;;24.56;100.00
10668;BME280;5382;42.136;24.796;2023-08-06T01:12:18;98403.38;;;24.68;100.00
10668;BME280;5382;42.136;24.796;2023-08-06T01:14:57;98407.72;;;24.57;100.00
10668;BME280;5382;42.136;24.796;2023-08-06T01:17:28;98379.75;;;24.40;100.00
10668;BME280;5382;42.136;24.796;2023-08-06T01:19:56;98416.91;;;24.56;100.00
10668;BME280;5382;42.136;24.796;2023-08-06T01:22:24;98410.91;;;24.54;100.00
10668;BME280;5382;42.136;24.796;2023-08-06T01:24:52;98413.59;;;24.54;100.00
10668;BME280;5382;42.136;24.796;2023-08-06T01:27:26;98412.09;;;24.58;100.00
10668;BME280;5382;42.136;24.796;2023-08-06T01:29:59;98433.94;;;24.57;100.00
10668;BME280;5382;42.136;24.796;2023-08-06T01:32:31;98351.47;;;24.07;100.00
10668;BME280;5382;42.136;24.796;2023-08-06T01:35:02;98428.31;;;24.58;100.00
10668;BME280;5382;42.136;24.796;2023-08-06T01:37:32;98403.50;;;24.62;100.00
10668;BME280;5382;42.136;24.796;2023-08-06T01:39:59;98409.22;;;24.65;100.00
10668;BME280;5382;42.136;24.796;2023-08-06T01:42:25;98409.50;;;24.64;100.00
10668;BME280;5382;42.136;24.796;2023-08-06T01:44:52;98398.41;;;24.65;100.00
10668;BME280;5382;42.136;24.796;2023-08-06T01:47:19;98384.34;;;24.63;100.00
10668;BME280;5382;42.136;24.796;2023-08-06T01:49:46;98389.28;;;24.54;100.00
10668;BME280;5382;42.136;24.796;2023-08-06T01:52:13;98385.38;;;24.62;100.00
10668;BME280;5382;42.136;24.796;2023-08-06T01:54:41;98393.38;;;24.69;100.00
10668;BME280;5382;42.136;24.796;2023-08-06T01:57:08;98387.63;;;24.53;100.00
10668;BME280;5382;42.136;24.796;2023-08-06T01:59:35;98379.53;;;24.53;100.00
10668;BME280;5382;42.136;24.796;2023-08-06T02:02:02;98406.78;;;24.64;100.00
10668;BME280;5382;42.136;24.796;2023-08-06T02:04:29;98412.31;;;24.69;100.00
10668;BME280;5382;42.136;24.796;2023-08-06T02:06:56;98414.19;;;24.56;100.00
10668;BME280;5382;42.136;24.796;2023-08-06T02:09:22;98426.91;;;24.56;100.00
10668;BME280;5382;42.136;24.796;2023-08-06T02:11:51;98395.50;;;24.55;100.00
10668;BME280;5382;42.136;24.796;2023-08-06T02:14:17;98406.03;;;24.80;100.00
10668;BME280;5382;42.136;24.796;2023-08-06T02:16:44;98373.88;;;24.55;100.00
10668;BME280;5382;42.136;24.796;2023-08-06T02:19:11;98409.91;;;24.84;100.00
10668;BME280;5382;42.136;24.796;2023-08-06T02:21:38;98406.84;;;24.92;100.00
10668;BME280;5382;42.136;24.796;2023-08-06T02:24:05;98391.47;;;24.81;100.00
10668;BME280;5382;42.136;24.796;2023-08-06T02:26:31;98424.47;;;24.95;100.00
10668;BME280;5382;42.136;24.796;2023-08-06T02:29:00;98415.63;;;24.99;100.00
10668;BME280;5382;42.136;24.796;2023-08-06T02:31:26;98403.16;;;24.98;100.00
10668;BME280;5382;42.136;24.796;2023-08-06T02:33:53;98417.88;;;24.91;100.00
10668;BME280;5382;42.136;24.796;2023-08-06T02:36:20;98403.44;;;24.85;100.00
10668;BME280;5382;42.136;24.796;2023-08-06T02:38:47;98378.19;;;24.68;100.00
10668;BME280;5382;42.136;24.796;2023-08-06T02:41:14;98399.25;;;24.66;100.00
10668;BME280;5382;42.136;24.796;2023-08-06T02:43:41;98379.03;;;24.56;100.00
10668;BME280;5382;42.136;24.796;2023-08-06T02:46:09;98382.66;;;24.62;100.00
10668;BME280;5382;42.136;24.796;2023-08-06T02:48:36;98407.72;;;24.57;100.00
10668;BME280;5382;42.136;24.796;2023-08-06T02:51:03;98407.88;;;24.51;100.00
10668;BME280;5382;42.136;24.796;2023-08-06T02:53:30;98401.28;;;24.47;100.00
10668;BME280;5382;42.136;24.796;2023-08-06T02:55:57;98390.56;;;24.52;100.00
10668;BME280;5382;42.136;24.796;2023-08-06T02:58:24;98384.91;;;24.42;100.00
10668;BME280;5382;42.136;24.796;2023-08-06T03:01:00;98329.94;;;24.24;100.00
10668;BME280;5382;42.136;24.796;2023-08-06T03:03:29;98390.44;;;24.58;100.00
10668;BME280;5382;42.136;24.796;2023-08-06T03:05:56;98388.56;;;24.59;100.00
10668;BME280;5382;42.136;24.796;2023-08-06T03:08:23;98392.22;;;24.53;100.00
10668;BME280;5382;42.136;24.796;2023-08-06T03:10:50;98381.06;;;24.49;100.00
10668;BME280;5382;42.136;24.796;2023-08-06T03:13:17;98382.13;;;24.48;100.00
10668;BME280;5382;42.136;24.796;2023-08-06T03:15:44;98394.09;;;24.52;100.00
10668;BME280;5382;42.136;24.796;2023-08-06T03:18:17;98395.97;;;24.64;100.00
10668;BME280;5382;42.136;24.796;2023-08-06T03:20:46;98392.88;;;24.72;100.00
10668;BME280;5382;42.136;24.796;2023-08-06T03:23:13;98389.09;;;24.73;100.00
10668;BME280;5382;42.136;24.796;2023-08-06T03:25:39;98389.81;;;24.80;100.00
10668;BME280;5382;42.136;24.796;2023-08-06T03:28:06;98396.88;;;24.81;100.00
10668;BME280;5382;42.136;24.796;2023-08-06T03:30:33;98401.94;;;24.77;100.00
10668;BME280;5382;42.136;24.796;2023-08-06T03:33:00;98403.81;;;24.77;100.00
10668;BME280;5382;42.136;24.796;2023-08-06T03:35:27;98412.31;;;24.57;100.00
10668;BME280;5382;42.136;24.796;2023-08-06T03:37:55;98417.75;;;24.45;100.00
10668;BME280;5382;42.136;24.796;2023-08-06T03:40:22;98417.97;;;24.55;100.00
10668;BME280;5382;42.136;24.796;2023-08-06T03:42:49;98406.91;;;24.57;100.00
10668;BME280;5382;42.136;24.796;2023-08-06T03:45:16;98408.09;;;24.61;100.00
10668;BME280;5382;42.136;24.796;2023-08-06T03:47:42;98386.72;;;24.48;100.00
10668;BME280;5382;42.136;24.796;2023-08-06T03:50:09;98371.41;;;24.53;100.00
10668;BME280;5382;42.136;24.796;2023-08-06T03:52:36;98407.38;;;24.42;100.00
10668;BME280;5382;42.136;24.796;2023-08-06T03:55:05;98409.03;;;24.55;100.00
10668;BME280;5382;42.136;24.796;2023-08-06T03:57:31;98407.38;;;24.66;100.00
10668;BME280;5382;42.136;24.796;2023-08-06T03:59:58;98403.38;;;24.68;100.00
10668;BME280;5382;42.136;24.796;2023-08-06T04:02:25;98415.72;;;24.76;100.00
10668;BME280;5382;42.136;24.796;2023-08-06T04:04:52;98402.69;;;24.61;100.00
10668;BME280;5382;42.136;24.796;2023-08-06T04:07:19;98414.53;;;24.60;100.00
10668;BME280;5382;42.136;24.796;2023-08-06T04:09:54;98419.72;;;24.62;100.00
10668;BME280;5382;42.136;24.796;2023-08-06T04:12:22;98416.91;;;24.56;100.00
10668;BME280;5382;42.136;24.796;2023-08-06T04:14:50;98419.84;;;24.67;100.00
10668;BME280;5382;42.136;24.796;2023-08-06T04:17:17;98413.13;;;24.69;100.00
10668;BME280;5382;42.136;24.796;2023-08-06T04:19:46;98388.09;;;24.62;100.00
10668;BME280;5382;42.136;24.796;2023-08-06T04:22:13;98417.78;;;24.86;100.00
10668;BME280;5382;42.136;24.796;2023-08-06T04:24:41;98413.75;;;25.00;100.00
10668;BME280;5382;42.136;24.796;2023-08-06T04:27:08;98425.72;;;25.16;100.00
10668;BME280;5382;42.136;24.796;2023-08-06T04:29:37;98408.09;;;25.01;100.00
10668;BME280;5382;42.136;24.796;2023-08-06T04:32:06;98439.13;;;25.22;100.00
10668;BME280;5382;42.136;24.796;2023-08-06T04:34:33;98429.59;;;25.20;100.00
10668;BME280;5382;42.136;24.796;2023-08-06T04:37:00;98427.09;;;25.30;100.00
10668;BME280;5382;42.136;24.796;2023-08-06T04:39:27;98423.31;;;25.31;100.00
10668;BME280;5382;42.136;24.796;2023-08-06T04:41:55;98427.28;;;25.40;100.00
10668;BME280;5382;42.136;24.796;2023-08-06T04:44:23;98426.59;;;25.33;100.00
10668;BME280;5382;42.136;24.796;2023-08-06T04:46:51;98409.88;;;25.36;100.00
10668;BME280;5382;42.136;24.796;2023-08-06T04:49:18;98412.19;;;25.44;100.00
10668;BME280;5382;42.136;24.796;2023-08-06T04:51:45;98425.13;;;25.42;100.00
10668;BME280;5382;42.136;24.796;2023-08-06T04:54:12;98382.50;;;25.21;100.00
10668;BME280;5382;42.136;24.796;2023-08-06T04:56:39;98377.00;;;25.16;100.00
10668;BME280;5382;42.136;24.796;2023-08-06T04:59:05;98412.19;;;25.44;100.00
10668;BME280;5382;42.136;24.796;2023-08-06T05:01:32;98421.28;;;25.55;100.00
10668;BME280;5382;42.136;24.796;2023-08-06T05:04:00;98440.22;;;25.67;100.00
10668;BME280;5382;42.136;24.796;2023-08-06T05:06:27;98428.78;;;25.65;100.00
10668;BME280;5382;42.136;24.796;2023-08-06T05:08:54;98429.59;;;25.65;100.00
10668;BME280;5382;42.136;24.796;2023-08-06T05:11:21;98429.47;;;25.72;100.00
10668;BME280;5382;42.136;24.796;2023-08-06T05:13:49;98422.06;;;25.67;100.00
10668;BME280;5382;42.136;24.796;2023-08-06T05:16:16;98410.22;;;25.74;100.00
10668;BME280;5382;42.136;24.796;2023-08-06T05:18:43;98411.38;;;25.89;100.00
10668;BME280;5382;42.136;24.796;2023-08-06T05:21:11;98419.81;;;25.93;100.00
10668;BME280;5382;42.136;24.796;2023-08-06T05:23:38;98372.81;;;25.71;100.00
10668;BME280;5382;42.136;24.796;2023-08-06T05:26:04;98435.41;;;25.86;100.00
10668;BME280;5382;42.136;24.796;2023-08-06T05:28:31;98442.91;;;25.67;100.00
10668;BME280;5382;42.136;24.796;2023-08-06T05:30:58;98446.53;;;25.15;100.00
10668;BME280;5382;42.136;24.796;2023-08-06T05:33:25;98428.81;;;24.96;100.00
10668;BME280;5382;42.136;24.796;2023-08-06T05:35:52;98420.38;;;24.92;100.00
10668;BME280;5382;42.136;24.796;2023-08-06T05:38:20;98374.34;;;24.52;100.00
10668;BME280;5382;42.136;24.796;2023-08-06T05:40:47;98340.03;;;24.41;100.00
10668;BME280;5382;42.136;24.796;2023-08-06T05:43:14;98407.41;;;24.94;100.00
10668;BME280;5382;42.136;24.796;2023-08-06T05:45:44;98316.31;;;23.95;100.00
10668;BME280;5382;42.136;24.796;2023-08-06T05:48:11;98416.09;;;24.56;100.00
10668;BME280;5382;42.136;24.796;2023-08-06T05:50:38;98410.09;;;24.54;100.00
10668;BME280;5382;42.136;24.796;2023-08-06T05:53:06;98413.97;;;24.46;100.00
10668;BME280;5382;42.136;24.796;2023-08-06T05:55:34;98400.19;;;24.36;100.00
10668;BME280;5382;42.136;24.796;2023-08-06T05:58:01;98416.78;;;24.28;100.00
10668;BME280;5382;42.136;24.796;2023-08-06T06:00:28;98431.00;;;24.11;100.00
10668;BME280;5382;42.136;24.796;2023-08-06T06:02:55;98446.97;;;24.01;100.00
10668;BME280;5382;42.136;24.796;2023-08-06T06:05:22;98447.09;;;24.06;100.00
10668;BME280;5382;42.136;24.796;2023-08-06T06:07:48;98430.75;;;24.01;100.00
10668;BME280;5382;42.136;24.796;2023-08-06T06:10:15;98408.53;;;23.87;100.00
10668;BME280;5382;42.136;24.796;2023-08-06T06:12:44;98396.31;;;23.73;100.00
10668;BME280;5382;42.136;24.796;2023-08-06T06:15:10;98388.34;;;23.78;100.00
10668;BME280;5382;42.136;24.796;2023-08-06T06:17:38;98342.75;;;23.28;100.00
10668;BME280;5382;42.136;24.796;2023-08-06T06:20:06;98408.03;;;23.37;100.00
10668;BME280;5382;42.136;24.796;2023-08-06T06:22:33;98440.50;;;23.30;100.00
10668;BME280;5382;42.136;24.796;2023-08-06T06:25:03;98435.22;;;23.23;100.00
10668;BME280;5382;42.136;24.796;2023-08-06T06:27:30;98337.84;;;22.76;100.00
10668;BME280;5382;42.136;24.796;2023-08-06T06:29:58;98401.19;;;23.22;100.00
10668;BME280;5382;42.136;24.796;2023-08-06T06:32:25;98358.13;;;22.97;100.00
10668;BME280;5382;42.136;24.796;2023-08-06T06:34:52;98392.19;;;23.28;100.00
10668;BME280;5382;42.136;24.796;2023-08-06T06:37:19;98438.41;;;23.32;100.00
10668;BME280;5382;42.136;24.796;2023-08-06T06:39:46;98363.06;;;22.52;100.00
10668;BME280;5382;42.136;24.796;2023-08-06T06:42:12;98424.38;;;22.93;100.00
10668;BME280;5382;42.136;24.796;2023-08-06T06:44:40;98410.00;;;22.99;100.00
10668;BME280;5382;42.136;24.796;2023-08-06T06:47:09;98377.03;;;22.79;100.00
10668;BME280;5382;42.136;24.796;2023-08-06T06:49:35;98398.25;;;23.24;100.00
10668;BME280;5382;42.136;24.796;2023-08-06T06:52:03;98388.56;;;23.35;100.00
10668;BME280;5382;42.136;24.796;2023-08-06T06:54:30;98415.22;;;23.73;100.00
10668;BME280;5382;42.136;24.796;2023-08-06T06:56:57;98379.47;;;23.71;100.00
10668;BME280;5382;42.136;24.796;2023-08-06T06:59:24;98322.28;;;23.50;100.00
10668;BME280;5382;42.136;24.796;2023-08-06T07:01:51;98405.97;;;24.16;100.00
10668;BME280;5382;42.136;24.796;2023-08-06T07:04:19;98366.47;;;24.03;100.00
10668;BME280;5382;42.136;24.796;2023-08-06T07:06:46;98427.59;;;24.40;100.00
10668;BME280;5382;42.136;24.796;2023-08-06T07:09:13;98427.81;;;24.26;100.00
10668;BME280;5382;42.136;24.796;2023-08-06T07:11:40;98412.69;;;24.37;100.00
10668;BME280;5382;42.136;24.796;2023-08-06T07:14:09;98450.06;;;24.64;100.00
10668;BME280;5382;42.136;24.796;2023-08-06T07:16:36;98346.50;;;23.92;100.00
10668;BME280;5382;42.136;24.796;2023-08-06T07:19:02;98467.31;;;24.74;100.00
10668;BME280;5382;42.136;24.796;2023-08-06T07:21:32;98438.88;;;24.60;100.00
10668;BME280;5382;42.136;24.796;2023-08-06T07:23:59;98466.03;;;24.89;100.00
10668;BME280;5382;42.136;24.796;2023-08-06T07:26:25;98474.22;;;25.06;100.00
10668;BME280;5382;42.136;24.796;2023-08-06T07:28:52;98471.03;;;25.09;100.00
10668;BME280;5382;42.136;24.796;2023-08-06T07:31:19;98476.91;;;25.06;100.00
10668;BME280;5382;42.136;24.796;2023-08-06T07:33:46;98496.22;;;25.21;100.00
10668;BME280;5382;42.136;24.796;2023-08-06T07:36:14;98468.72;;;24.89;100.00
10668;BME280;5382;42.136;24.796;2023-08-06T07:38:42;98469.56;;;24.89;100.00
10668;BME280;5382;42.136;24.796;2023-08-06T07:41:09;98438.16;;;24.76;100.00
10668;BME280;5382;42.136;24.796;2023-08-06T07:43:36;98459.72;;;25.12;100.00
10668;BME280;5382;42.136;24.796;2023-08-06T07:46:03;98461.72;;;25.28;100.00
10668;BME280;5382;42.136;24.796;2023-08-06T07:48:30;98459.31;;;25.60;100.00
10668;BME280;5382;42.136;24.796;2023-08-06T07:50:57;98453.75;;;25.67;100.00
10668;BME280;5382;42.136;24.796;2023-08-06T07:53:25;98461.03;;;25.95;100.00
10668;BME280;5382;42.136;24.796;2023-08-06T07:55:56;98457.59;;;26.00;100.00
10668;BME280;5382;42.136;24.796;2023-08-06T07:58:23;98464.50;;;25.91;100.00
10668;BME280;5382;42.136;24.796;2023-08-06T08:00:51;98461.78;;;25.62;100.00
10668;BME280;5382;42.136;24.796;2023-08-06T08:03:18;98479.59;;;25.58;100.00
10668;BME280;5382;42.136;24.796;2023-08-06T08:05:45;98487.88;;;25.51;100.00
10668;BME280;5382;42.136;24.796;2023-08-06T08:08:12;98493.28;;;25.22;100.00
10668;BME280;5382;42.136;24.796;2023-08-06T08:10:39;98499.63;;;25.16;100.00
10668;BME280;5382;42.136;24.796;2023-08-06T08:13:07;98492.00;;;25.01;100.00
10668;BME280;5382;42.136;24.796;2023-08-06T08:15:34;98482.72;;;24.97;100.00
10668;BME280;5382;42.136;24.796;2023-08-06T08:18:01;98500.00;;;24.85;100.00
10668;BME280;5382;42.136;24.796;2023-08-06T08:20:28;98494.03;;;24.71;100.00
10668;BME280;5382;42.136;24.796;2023-08-06T08:22:58;98489.94;;;24.68;100.00
10668;BME280;5382;42.136;24.796;2023-08-06T08:25:26;98480.03;;;24.62;100.00
10668;BME280;5382;42.136;24.796;2023-08-06T08:27:53;98498.25;;;24.55;100.00
10668;BME280;5382;42.136;24.796;2023-08-06T08:30:21;98481.09;;;24.49;100.00
10668;BME280;5382;42.136;24.796;2023-08-06T08:32:50;98483.31;;;24.52;100.00
10668;BME280;5382;42.136;24.796;2023-08-06T08:35:17;98464.72;;;24.44;100.00
10668;BME280;5382;42.136;24.796;2023-08-06T08:37:44;98461.44;;;24.30;100.00
10668;BME280;5382;42.136;24.796;2023-08-06T08:40:11;98447.44;;;24.33;100.00
10668;BME280;5382;42.136;24.796;2023-08-06T08:42:37;98452.84;;;24.33;100.00
10668;BME280;5382;42.136;24.796;2023-08-06T08:45:07;98456.63;;;24.44;100.00
10668;BME280;5382;42.136;24.796;2023-08-06T08:47:38;98460.16;;;24.56;100.00
10668;BME280;5382;42.136;24.796;2023-08-06T08:50:08;98463.34;;;24.65;100.00
10668;BME280;5382;42.136;24.796;2023-08-06T08:52:36;98477.22;;;24.69;100.00
10668;BME280;5382;42.136;24.796;2023-08-06T08:55:03;98478.38;;;24.73;100.00
10668;BME280;5382;42.136;24.796;2023-08-06T08:57:30;98477.78;;;24.83;100.00
10668;BME280;5382;42.136;24.796;2023-08-06T08:59:57;98477.31;;;24.86;100.00
10668;BME280;5382;42.136;24.796;2023-08-06T09:02:25;98476.22;;;24.98;100.00
10668;BME280;5382;42.136;24.796;2023-08-06T09:04:57;98459.84;;;25.17;100.00
10668;BME280;5382;42.136;24.796;2023-08-06T09:07:27;98461.94;;;25.27;100.00
10668;BME280;5382;42.136;24.796;2023-08-06T09:09:56;98443.72;;;25.51;100.00
10668;BME280;5382;42.136;24.796;2023-08-06T09:12:24;98424.53;;;25.69;100.00
10668;BME280;5382;42.136;24.796;2023-08-06T09:14:51;98436.81;;;26.05;100.00
10668;BME280;5382;42.136;24.796;2023-08-06T09:17:17;98435.13;;;26.38;100.00
10668;BME280;5382;42.136;24.796;2023-08-06T09:19:45;98438.13;;;26.75;100.00
10668;BME280;5382;42.136;24.796;2023-08-06T09:22:15;98439.97;;;26.92;100.00
10668;BME280;5382;42.136;24.796;2023-08-06T09:24:43;98443.59;;;27.19;100.00
10668;BME280;5382;42.136;24.796;2023-08-06T09:27:13;98444.47;;;27.52;100.00
10668;BME280;5382;42.136;24.796;2023-08-06T09:29:41;98443.63;;;27.79;100.00
10668;BME280;5382;42.136;24.796;2023-08-06T09:32:10;98440.16;;;27.56;100.00
10668;BME280;5382;42.136;24.796;2023-08-06T09:34:39;98440.44;;;27.82;100.00
10668;BME280;5382;42.136;24.796;2023-08-06T09:37:07;98444.75;;;28.10;100.00
10668;BME280;5382;42.136;24.796;2023-08-06T09:39:37;98437.63;;;28.41;100.00
10668;BME280;5382;42.136;24.796;2023-08-06T09:42:04;98437.50;;;28.63;100.00
10668;BME280;5382;42.136;24.796;2023-08-06T09:44:32;98447.69;;;28.88;100.00
10668;BME280;5382;42.136;24.796;2023-08-06T09:47:01;98457.13;;;29.23;100.00
10668;BME280;5382;42.136;24.796;2023-08-06T09:49:28;98429.09;;;29.33;100.00
10668;BME280;5382;42.136;24.796;2023-08-06T09:52:10;98432.84;;;29.17;100.00
10668;BME280;5382;42.136;24.796;2023-08-06T09:54:39;98430.44;;;29.20;100.00
10668;BME280;5382;42.136;24.796;2023-08-06T09:57:06;98430.44;;;29.25;100.00
10668;BME280;5382;42.136;24.796;2023-08-06T09:59:33;98432.63;;;29.28;100.00
10668;BME280;5382;42.136;24.796;2023-08-06T10:02:02;98409.69;;;29.19;100.00
10668;BME280;5382;42.136;24.796;2023-08-06T10:04:33;98395.03;;;29.35;100.00
10668;BME280;5382;42.136;24.796;2023-08-06T10:07:00;98365.56;;;29.22;100.00
10668;BME280;5382;42.136;24.796;2023-08-06T10:09:27;98399.47;;;29.93;100.00
10668;BME280;5382;42.136;24.796;2023-08-06T10:11:56;98407.66;;;29.93;100.00
10668;BME280;5382;42.136;24.796;2023-08-06T10:14:26;98402.97;;;29.57;100.00
10668;BME280;5382;42.136;24.796;2023-08-06T10:16:57;98392.84;;;29.32;97.99
10668;BME280;5382;42.136;24.796;2023-08-06T10:19:25;98368.88;;;29.40;98.55
10668;BME280;5382;42.136;24.796;2023-08-06T10:22:11;98374.13;;;29.72;96.98
10668;BME280;5382;42.136;24.796;2023-08-06T10:24:49;98349.81;;;29.96;93.86
10668;BME280;5382;42.136;24.796;2023-08-06T10:27:30;98365.88;;;30.23;91.72
10668;BME280;5382;42.136;24.796;2023-08-06T10:30:22;98360.72;;;30.27;87.96
10668;BME280;5382;42.136;24.796;2023-08-06T10:32:50;98370.50;;;30.17;85.65
10668;BME280;5382;42.136;24.796;2023-08-06T10:35:37;98351.38;;;30.43;81.13
10668;BME280;5382;42.136;24.796;2023-08-06T10:38:07;98356.16;;;30.77;83.85
10668;BME280;5382;42.136;24.796;2023-08-06T10:40:34;98352.81;;;30.95;77.83
10668;BME280;5382;42.136;24.796;2023-08-06T10:43:03;98361.78;;;31.50;72.67
10668;BME280;5382;42.136;24.796;2023-08-06T10:45:34;98343.66;;;31.60;68.41
10668;BME280;5382;42.136;24.796;2023-08-06T10:48:02;98347.28;;;32.13;65.24
10668;BME280;5382;42.136;24.796;2023-08-06T10:50:29;98344.94;;;32.55;63.31
10668;BME280;5382;42.136;24.796;2023-08-06T10:52:57;98364.31;;;32.83;61.23
10668;BME280;5382;42.136;24.796;2023-08-06T10:55:25;98363.31;;;33.35;59.51
10668;BME280;5382;42.136;24.796;2023-08-06T10:57:54;98385.19;;;34.25;54.20
10668;BME280;5382;42.136;24.796;2023-08-06T11:00:23;98379.00;;;34.19;53.03
10668;BME280;5382;42.136;24.796;2023-08-06T11:02:50;98384.09;;;33.93;53.56
10668;BME280;5382;42.136;24.796;2023-08-06T11:05:25;98376.66;;;34.26;50.34
10668;BME280;5382;42.136;24.796;2023-08-06T11:07:52;98362.84;;;34.31;50.42
10668;BME280;5382;42.136;24.796;2023-08-06T11:10:19;98354.69;;;34.26;50.25
10668;BME280;5382;42.136;24.796;2023-08-06T11:12:45;98353.97;;;34.48;49.55
10668;BME280;5382;42.136;24.796;2023-08-06T11:15:12;98376.28;;;34.74;48.06
10668;BME280;5382;42.136;24.796;2023-08-06T11:17:41;98353.88;;;34.53;48.09
10668;BME280;5382;42.136;24.796;2023-08-06T11:20:09;98367.41;;;34.91;47.25
10668;BME280;5382;42.136;24.796;2023-08-06T11:22:37;98358.91;;;35.29;45.99
10668;BME280;5382;42.136;24.796;2023-08-06T11:25:05;98364.28;;;35.57;43.76
10668;BME280;5382;42.136;24.796;2023-08-06T11:27:33;98373.28;;;35.12;43.81
10668;BME280;5382;42.136;24.796;2023-08-06T11:30:00;98346.97;;;35.56;43.24
10668;BME280;5382;42.136;24.796;2023-08-06T11:32:26;98367.84;;;35.80;42.40
10668;BME280;5382;42.136;24.796;2023-08-06T11:34:55;98371.16;;;35.91;41.91
10668;BME280;5382;42.136;24.796;2023-08-06T11:37:23;98374.81;;;35.77;41.78
10668;BME280;5382;42.136;24.796;2023-08-06T11:39:53;98382.63;;;35.84;41.78
10668;BME280;5382;42.136;24.796;2023-08-06T11:42:21;98362.06;;;35.59;41.52
10668;BME280;5382;42.136;24.796;2023-08-06T11:44:47;98376.66;;;36.13;41.36
10668;BME280;5382;42.136;24.796;2023-08-06T11:47:15;98369.91;;;35.97;41.18
10668;BME280;5382;42.136;24.796;2023-08-06T11:49:44;98370.38;;;36.21;41.43
10668;BME280;5382;42.136;24.796;2023-08-06T11:52:17;98365.72;;;36.62;40.85
10668;BME280;5382;42.136;24.796;2023-08-06T11:54:46;98343.13;;;37.26;39.05
10668;BME280;5382;42.136;24.796;2023-08-06T11:57:15;98361.28;;;37.88;38.66
10668;BME280;5382;42.136;24.796;2023-08-06T11:59:42;98363.91;;;37.32;39.09
10668;BME280;5382;42.136;24.796;2023-08-06T12:02:09;98363.28;;;36.60;39.17
10668;BME280;5382;42.136;24.796;2023-08-06T12:05:01;98375.41;;;37.17;38.81
10668;BME280;5382;42.136;24.796;2023-08-06T12:07:32;98367.47;;;37.15;37.71
10668;BME280;5382;42.136;24.796;2023-08-06T12:09:59;98374.59;;;37.42;36.85
10668;BME280;5382;42.136;24.796;2023-08-06T12:12:27;98373.81;;;37.59;36.40
10668;BME280;5382;42.136;24.796;2023-08-06T12:14:54;98381.25;;;37.24;36.16
10668;BME280;5382;42.136;24.796;2023-08-06T12:17:22;98382.25;;;36.71;36.24
10668;BME280;5382;42.136;24.796;2023-08-06T12:19:49;98368.84;;;36.38;36.59
10668;BME280;5382;42.136;24.796;2023-08-06T12:22:16;98364.81;;;35.81;37.38
10668;BME280;5382;42.136;24.796;2023-08-06T12:24:46;98388.91;;;35.39;38.04
10668;BME280;5382;42.136;24.796;2023-08-06T12:27:13;98373.19;;;34.90;38.86
10668;BME280;5382;42.136;24.796;2023-08-06T12:29:41;98366.78;;;35.45;38.55
10668;BME280;5382;42.136;24.796;2023-08-06T12:32:09;98375.59;;;36.63;37.41
10668;BME280;5382;42.136;24.796;2023-08-06T12:34:37;98377.03;;;36.60;36.46
10668;BME280;5382;42.136;24.796;2023-08-06T12:37:04;98371.47;;;35.44;38.27
10668;BME280;5382;42.136;24.796;2023-08-06T12:39:31;98364.53;;;35.24;38.27
10668;BME280;5382;42.136;24.796;2023-08-06T12:41:59;98355.28;;;34.92;38.60
10668;BME280;5382;42.136;24.796;2023-08-06T12:44:26;98364.16;;;34.48;39.33
10668;BME280;5382;42.136;24.796;2023-08-06T12:46:53;98363.53;;;33.77;40.60
10668;BME280;5382;42.136;24.796;2023-08-06T12:49:20;98355.63;;;33.56;40.49
10668;BME280;5382;42.136;24.796;2023-08-06T12:51:47;98362.72;;;33.19;40.49
10668;BME280;5382;42.136;24.796;2023-08-06T12:54:15;98361.25;;;33.08;41.24
10668;BME280;5382;42.136;24.796;2023-08-06T12:56:42;98357.78;;;33.21;41.53